Time;durP1;ratioP1;P1;durP2;ratioP2;P2;SDS_P1;SDS_P2;PMS_P1;PMS_P2;Temp;Humidity;BMP_temperature;BMP_pressure;BME280_temperature;BME280_humidity;BME280_pressure;Samples;Min_cycle;Max_cycle;Signal;HPM_P1;HPM_P2
2022/11/19 00:02:12;;;;;;;12.52;9.05;;;;;;;14.49;77.37;98187.88;4863646;29;20056;-91
2022/11/19 00:04:37;;;;;;;12.52;8.27;;;;;;;14.50;77.24;98192.97;4858052;29;20057;-91
2022/11/19 00:07:03;;;;;;;13.32;8.55;;;;;;;14.51;77.36;98201.91;4855774;29;20516;-91
2022/11/19 00:09:28;;;;;;;14.48;9.75;;;;;;;14.41;77.66;98207.66;4848205;29;20028;-92
2022/11/19 00:14:38;;;;;;;16.13;9.82;;;;;;;14.50;77.41;98240.94;4866936;29;20108;-92
2022/11/19 00:17:03;;;;;;;11.43;8.95;;;;;;;14.41;77.18;98221.22;4845900;29;20024;-92
2022/11/19 00:19:29;;;;;;;12.77;8.88;;;;;;;14.39;77.57;98224.22;4863978;29;20021;-92
2022/11/19 00:21:54;;;;;;;13.05;8.60;;;;;;;14.35;77.40;98212.44;4862264;29;20033;-91
2022/11/19 00:24:21;;;;;;;12.55;8.65;;;;;;;14.35;77.49;98217.88;4861153;29;20037;-91
2022/11/19 00:26:46;;;;;;;10.43;7.93;;;;;;;14.46;77.43;98229.16;4840012;29;20036;-92
2022/11/19 00:29:12;;;;;;;13.30;8.40;;;;;;;14.32;78.33;98221.22;4867681;29;20167;-92
2022/11/19 00:31:38;;;;;;;11.43;8.55;;;;;;;14.28;79.14;98223.00;4856044;29;20518;-91
2022/11/19 00:34:03;;;;;;;12.32;8.43;;;;;;;14.28;78.87;98231.09;4873624;29;20072;-92
2022/11/19 00:36:29;;;;;;;15.00;8.50;;;;;;;14.19;78.85;98222.19;4868685;29;20068;-91
2022/11/19 00:38:54;;;;;;;12.13;8.90;;;;;;;14.14;79.70;98236.69;4823882;29;20037;-92
2022/11/19 00:41:20;;;;;;;18.98;10.95;;;;;;;14.14;79.80;98244.81;4825246;29;20029;-91
2022/11/19 00:43:48;;;;;;;15.30;9.13;;;;;;;14.19;79.38;98243.84;4821969;29;20029;-92
2022/11/19 00:46:21;;;;;;;13.23;8.27;;;;;;;14.24;79.33;98259.94;4825223;29;20574;-91
2022/11/19 00:48:48;;;;;;;13.55;9.07;;;;;;;14.23;79.10;98263.75;4842282;29;20572;-92
2022/11/19 00:51:13;;;;;;;12.60;8.30;;;;;;;14.30;78.79;98289.25;4846838;29;20373;-91
2022/11/19 00:53:39;;;;;;;10.98;8.35;;;;;;;14.36;78.73;98303.41;4845379;29;20088;-91
2022/11/19 00:56:08;;;;;;;11.32;6.85;;;;;;;14.24;78.04;98298.63;4823600;29;20030;-90
2022/11/19 00:58:33;;;;;;;9.98;7.13;;;;;;;14.34;78.13;98319.19;4849327;29;20056;-91
2022/11/19 01:00:59;;;;;;;11.70;6.22;;;;;;;14.29;77.64;98332.88;4845750;29;20466;-89
2022/11/19 01:03:24;;;;;;;7.97;5.85;;;;;;;14.22;77.49;98316.31;4828171;29;20421;-92
2022/11/19 01:05:50;;;;;;;9.45;5.45;;;;;;;14.31;77.26;98326.00;4846489;29;20080;-91
2022/11/19 01:08:15;;;;;;;6.13;5.20;;;;;;;14.15;77.17;98309.47;4832805;29;20033;-91
2022/11/19 01:10:42;;;;;;;6.88;4.97;;;;;;;14.20;77.13;98319.34;4855218;29;20025;-90
2022/11/19 01:15:51;;;;;;;7.80;5.88;;;;;;;14.28;76.55;98339.41;4848893;29;20036;-90
2022/11/19 01:18:17;;;;;;;10.90;6.88;;;;;;;14.25;76.80;98340.03;4859019;29;20056;-90
2022/11/19 01:20:43;;;;;;;9.48;6.75;;;;;;;14.19;77.06;98347.50;4854492;29;20378;-90
2022/11/19 01:23:08;;;;;;;9.60;6.82;;;;;;;14.26;76.73;98355.97;4832345;29;20032;-90
2022/11/19 01:25:35;;;;;;;8.90;6.82;;;;;;;14.21;76.78;98358.03;4854076;29;20025;-90
2022/11/19 01:28:00;;;;;;;10.80;7.18;;;;;;;14.10;76.99;98344.81;4855073;29;20445;-91
2022/11/19 01:30:26;;;;;;;14.75;9.07;;;;;;;14.12;77.10;98353.41;4822064;29;20025;-90
2022/11/19 01:32:51;;;;;;;11.10;8.43;;;;;;;14.18;78.53;98369.50;4856326;29;20029;-90
2022/11/19 01:35:17;;;;;;;11.93;8.00;;;;;;;14.10;78.67;98376.50;4847022;29;20508;-90
2022/11/19 01:37:42;;;;;;;10.52;7.75;;;;;;;14.00;78.77;98366.75;4849012;29;20053;-91
2022/11/19 01:40:09;;;;;;;10.68;7.55;;;;;;;14.05;78.95;98376.63;4867032;29;20021;-90
2022/11/19 01:42:49;;;;;;;9.50;6.95;;;;;;;14.05;79.16;98382.88;4876519;29;20051;-90
2022/11/19 01:45:41;;;;;;;11.05;8.23;;;;;;;14.18;78.98;98391.97;4850517;29;20027;-90
2022/11/19 01:48:06;;;;;;;13.85;8.50;;;;;;;14.09;79.25;98393.84;4873284;29;20061;-90
2022/11/19 01:50:34;;;;;;;13.32;9.40;;;;;;;13.95;79.10;98375.81;4891583;29;20094;-90
2022/11/19 01:53:00;;;;;;;13.30;9.15;;;;;;;14.11;79.07;98395.13;4854290;29;20056;-91
2022/11/19 01:55:25;;;;;;;14.18;8.85;;;;;;;14.02;78.87;98379.97;4864081;29;20491;-90
2022/11/19 01:57:54;;;;;;;12.77;9.00;;;;;;;14.04;78.76;98381.25;4849378;29;20029;-90
2022/11/19 02:00:21;;;;;;;13.38;8.55;;;;;;;14.04;78.43;98385.88;4846709;29;20408;-90
2022/11/19 02:02:46;;;;;;;12.82;7.93;;;;;;;14.07;78.58;98388.75;4866266;29;20037;-90
2022/11/19 02:05:12;;;;;;;13.65;8.40;;;;;;;14.10;78.45;98403.56;4855829;29;20028;-91
2022/11/19 02:07:37;;;;;;;11.93;9.43;;;;;;;14.06;78.52;98394.47;4843933;29;20041;-91
2022/11/19 02:10:03;;;;;;;13.38;8.80;;;;;;;14.05;78.08;98399.09;4839463;29;20081;-90
2022/11/19 02:12:28;;;;;;;11.23;8.65;;;;;;;14.12;78.24;98412.97;4864474;29;20116;-90
2022/11/19 02:15:12;;;;;;;11.15;8.43;;;;;;;14.20;78.19;98424.94;4889035;29;20043;-90
2022/11/19 02:18:00;;;;;;;11.52;8.43;;;;;;;14.17;78.24;98416.63;4910360;29;20032;-90
2022/11/19 02:20:41;;;;;;;12.38;9.07;;;;;;;14.12;78.43;98410.25;4868144;29;20056;-90
2022/11/19 02:23:31;;;;;;;10.73;8.13;;;;;;;13.76;79.80;98386.13;4892542;29;20033;-90
2022/11/19 02:26:18;;;;;;;12.10;8.68;;;;;;;13.84;80.26;98409.72;4877497;29;20027;-91
2022/11/19 02:28:50;;;;;;;16.95;9.23;;;;;;;13.91;79.78;98437.09;4875338;29;20116;-90
2022/11/19 02:31:39;;;;;;;12.18;8.68;;;;;;;13.85;79.75;98437.56;4865850;29;20021;-90
2022/11/19 02:34:11;;;;;;;10.25;8.05;;;;;;;13.97;79.55;98474.88;4869515;29;20142;-89
2022/11/19 02:36:50;;;;;;;11.38;8.27;;;;;;;13.86;79.36;98458.91;4894632;29;20080;-89
2022/11/19 02:39:35;;;;;;;10.85;7.70;;;;;;;14.00;79.22;98476.94;4847719;29;20411;-89
2022/11/19 02:42:04;;;;;;;10.38;7.80;;;;;;;13.90;79.29;98462.59;4870987;29;20025;-90
2022/11/19 02:47:28;;;;;;;16.10;8.95;;;;;;;14.00;79.21;98477.72;4868273;29;20499;-89
2022/11/19 02:49:57;;;;;;;13.43;7.82;;;;;;;13.91;79.67;98475.00;4870700;29;20028;-89
2022/11/19 02:52:22;;;;;;;14.40;7.75;;;;;;;13.83;79.24;98466.84;4849247;29;20032;-89
2022/11/19 02:54:48;;;;;;;5.35;3.90;;;;;;;13.83;77.49;98456.81;4861239;29;20393;-89
2022/11/19 02:57:13;;;;;;;5.03;2.95;;;;;;;13.89;76.79;98487.25;4857932;29;20029;-89
2022/11/19 03:05:15;;;;;;;3.78;2.75;;;;;;;13.84;74.97;98498.19;4857207;29;20042;-89
2022/11/19 03:07:40;;;;;;;4.68;3.00;;;;;;;13.72;75.67;98491.47;4853828;29;20056;-89
2022/11/19 03:10:07;;;;;;;4.82;3.40;;;;;;;13.69;75.32;98499.41;4874474;29;20021;-89
2022/11/19 03:12:36;;;;;;;5.10;3.53;;;;;;;13.79;75.12;98514.56;4849229;29;20035;-89
2022/11/19 03:18:13;;;;;;;5.63;3.30;;;;;;;13.69;74.71;98521.81;4897681;29;20132;-89
2022/11/19 03:20:45;;;;;;;7.07;3.65;;;;;;;13.73;74.13;98522.00;4894773;29;20060;-88
2022/11/19 03:23:20;;;;;;;4.47;3.40;;;;;;;13.72;74.36;98509.63;4847729;29;20025;-89
2022/11/19 03:26:00;;;;;;;4.43;3.38;;;;;;;13.66;74.71;98492.72;4886606;29;20085;-89
2022/11/19 03:28:28;;;;;;;8.05;3.63;;;;;;;13.72;75.38;98491.47;4864344;29;20143;-88
2022/11/19 03:30:53;;;;;;;6.05;3.83;;;;;;;13.73;75.27;98489.56;4864191;29;20065;-88
2022/11/19 03:33:27;;;;;;;5.50;3.88;;;;;;;13.86;75.20;98521.16;4862155;29;20507;-90
2022/11/19 03:35:57;;;;;;;4.35;3.53;;;;;;;13.83;75.31;98526.38;4891901;29;20476;-90
2022/11/19 03:38:43;;;;;;;6.55;3.83;;;;;;;13.88;75.48;98551.41;4857862;29;20117;-89
2022/11/19 03:41:10;;;;;;;5.22;3.30;;;;;;;13.87;75.50;98555.19;4876029;29;20041;-90
2022/11/19 03:43:37;;;;;;;5.60;4.03;;;;;;;13.74;75.89;98529.03;4847808;29;20036;-91
2022/11/19 03:46:03;;;;;;;6.10;3.70;;;;;;;13.81;75.56;98544.81;4859342;29;20024;-88
2022/11/19 03:48:28;;;;;;;5.18;3.72;;;;;;;13.83;75.92;98556.94;4864116;29;20028;-88
2022/11/19 03:51:00;;;;;;;5.93;4.00;;;;;;;13.76;76.15;98564.69;4848576;29;20025;-89
2022/11/19 03:53:26;;;;;;;;;;;;;;;13.84;76.31;98574.78;4852462;29;20036;-88
2022/11/19 03:55:57;;;;;;;8.40;3.92;;;;;;;13.65;76.68;98566.03;4867440;29;20339;-89
2022/11/19 03:58:23;;;;;;;5.38;3.65;;;;;;;13.65;76.57;98574.94;4858110;29;20033;-88
2022/11/19 04:00:49;;;;;;;6.55;4.38;;;;;;;13.60;76.88;98579.72;4863147;29;20032;-88
2022/11/19 04:03:14;;;;;;;7.35;4.50;;;;;;;13.52;77.17;98595.56;4838491;29;20029;-90
2022/11/19 04:05:39;;;;;;;6.28;4.28;;;;;;;13.51;77.26;98596.66;4867021;29;20552;-91
2022/11/19 04:08:05;;;;;;;7.20;4.60;;;;;;;13.49;77.02;98589.97;4857327;29;20033;-89
2022/11/19 04:10:30;;;;;;;6.85;4.53;;;;;;;13.49;76.41;98606.22;4852129;29;20032;-88
2022/11/19 04:12:56;;;;;;;5.18;4.15;;;;;;;13.48;76.78;98593.78;4867592;29;20037;-91
2022/11/19 04:15:21;;;;;;;5.85;4.00;;;;;;;13.54;76.95;98608.78;4863962;29;20096;-87
2022/11/19 04:17:47;;;;;;;8.98;4.72;;;;;;;13.56;77.04;98635.53;4851405;29;20495;-88
2022/11/19 04:20:13;;;;;;;7.95;5.07;;;;;;;13.49;77.36;98642.16;4856715;29;20483;-88
2022/11/19 04:22:38;;;;;;;8.77;4.80;;;;;;;13.50;77.20;98645.66;4867179;29;20172;-91
2022/11/19 04:25:04;;;;;;;6.57;5.00;;;;;;;13.44;77.70;98642.25;4860137;29;20044;-88
2022/11/19 04:27:29;;;;;;;8.35;5.55;;;;;;;13.37;78.78;98658.13;4867208;29;20478;-91
2022/11/19 04:29:55;;;;;;;10.65;5.03;;;;;;;13.37;78.56;98654.63;4851161;29;20036;-90
2022/11/19 04:32:20;;;;;;;7.32;5.22;;;;;;;13.35;78.70;98663.03;4866697;29;20449;-90
2022/11/19 04:34:46;;;;;;;7.07;5.47;;;;;;;13.24;79.21;98662.44;4857018;29;20518;-91
2022/11/19 04:37:11;;;;;;;6.70;4.95;;;;;;;13.37;78.88;98682.44;4865744;29;20060;-88
2022/11/19 04:39:37;;;;;;;6.38;4.70;;;;;;;13.45;78.44;98692.56;4856694;29;20033;-90
2022/11/19 04:42:02;;;;;;;6.40;4.95;;;;;;;13.28;78.92;98674.22;4882551;29;20032;-90
2022/11/19 04:44:28;;;;;;;8.68;4.75;;;;;;;13.16;79.30;98665.84;4878783;29;20032;-90
2022/11/19 04:46:53;;;;;;;11.60;5.13;;;;;;;13.29;78.95;98677.75;4856521;29;20046;-88
2022/11/19 04:49:19;;;;;;;7.13;4.72;;;;;;;13.23;78.59;98676.22;4859240;29;20411;-90
2022/11/19 04:51:44;;;;;;;6.03;4.72;;;;;;;13.19;78.68;98683.34;4865161;29;20024;-90
2022/11/19 04:54:09;;;;;;;6.30;4.97;;;;;;;13.17;78.54;98688.25;4878056;29;20036;-90
2022/11/19 04:56:35;;;;;;;7.93;4.38;;;;;;;13.10;78.24;98683.25;4862030;29;20033;-90
2022/11/19 04:59:01;;;;;;;6.78;4.65;;;;;;;13.02;78.34;98684.75;4866507;29;20044;-90
2022/11/19 05:01:26;;;;;;;7.85;4.55;;;;;;;12.94;78.14;98685.47;4873424;29;20070;-90
2022/11/19 05:03:52;;;;;;;7.70;5.18;;;;;;;12.83;78.43;98694.88;4849895;29;20094;-90
2022/11/19 05:06:17;;;;;;;7.65;5.22;;;;;;;12.84;78.58;98713.47;4866403;29;20036;-90
2022/11/19 05:08:43;;;;;;;8.10;5.55;;;;;;;12.77;78.49;98725.81;4866170;29;20059;-90
2022/11/19 05:11:08;;;;;;;10.43;5.90;;;;;;;12.71;78.51;98741.28;4862154;29;20039;-90
2022/11/19 05:13:34;;;;;;;9.70;6.38;;;;;;;12.67;78.76;98735.69;4842939;29;20052;-90
2022/11/19 05:15:59;;;;;;;8.57;5.55;;;;;;;12.71;78.62;98744.78;4842493;29;20102;-90
2022/11/19 05:18:25;;;;;;;9.63;5.45;;;;;;;12.65;78.84;98732.47;4862663;29;20033;-90
2022/11/19 05:20:50;;;;;;;7.45;5.95;;;;;;;12.45;79.88;98730.13;4878572;29;20078;-91
2022/11/19 05:23:15;;;;;;;7.18;4.88;;;;;;;12.59;79.69;98763.38;4865017;29;20032;-90
2022/11/19 05:25:42;;;;;;;6.93;5.20;;;;;;;12.61;78.56;98742.25;4861147;29;20036;-90
2022/11/19 05:28:07;;;;;;;10.57;5.80;;;;;;;12.57;78.98;98741.25;4853828;29;20089;-90
2022/11/19 05:30:33;;;;;;;9.77;6.47;;;;;;;12.61;78.82;98752.28;4838494;29;20028;-88
2022/11/19 05:32:59;;;;;;;8.50;5.80;;;;;;;12.61;78.89;98777.38;4849260;29;20470;-90
2022/11/19 05:35:24;;;;;;;7.97;5.45;;;;;;;12.47;78.86;98763.84;4855540;29;20049;-90
2022/11/19 05:37:50;;;;;;;7.68;5.78;;;;;;;12.55;79.58;98792.06;4849128;29;20053;-87
2022/11/19 05:40:15;;;;;;;7.75;6.10;;;;;;;12.53;80.12;98794.25;4845785;29;20090;-90
2022/11/19 05:42:41;;;;;;;7.82;5.95;;;;;;;12.67;79.48;98802.41;4847353;29;20033;-89
2022/11/19 05:45:07;;;;;;;8.32;5.18;;;;;;;12.58;80.01;98791.50;4862698;29;20029;-88
2022/11/19 05:47:32;;;;;;;10.80;5.75;;;;;;;12.61;80.04;98804.38;4832147;29;20476;-89
2022/11/19 05:49:58;;;;;;;9.60;5.60;;;;;;;12.74;79.62;98805.50;4847260;29;20035;-89
2022/11/19 05:52:23;;;;;;;8.60;5.70;;;;;;;12.82;78.85;98804.03;4862623;29;20025;-89
2022/11/19 05:54:51;;;;;;;9.45;6.20;;;;;;;12.99;78.63;98830.47;4847281;29;20178;-89
2022/11/19 05:57:17;;;;;;;13.30;6.47;;;;;;;12.92;78.50;98820.06;4862592;29;20033;-89
2022/11/19 05:59:42;;;;;;;8.07;5.97;;;;;;;13.03;78.15;98824.22;4845029;29;20030;-89
2022/11/19 06:02:07;;;;;;;10.65;6.65;;;;;;;13.02;77.92;98819.88;4847243;29;20032;-89
2022/11/19 06:04:33;;;;;;;10.98;6.95;;;;;;;13.11;77.50;98837.03;4846670;29;20044;-89
2022/11/19 06:06:58;;;;;;;11.05;7.30;;;;;;;13.14;77.35;98841.84;4846069;29;20044;-89
2022/11/19 06:09:24;;;;;;;11.57;7.20;;;;;;;13.13;77.16;98851.03;4847125;29;20035;-88
2022/11/19 06:11:50;;;;;;;10.50;7.05;;;;;;;13.09;78.03;98865.44;4862394;29;20412;-88
2022/11/19 06:14:25;;;;;;;11.23;6.07;;;;;;;13.17;78.64;98870.16;4847412;29;20033;-89
2022/11/19 06:16:54;;;;;;;8.65;5.95;;;;;;;12.92;79.40;98861.41;4846845;29;20032;-88
2022/11/19 06:19:19;;;;;;;9.52;5.85;;;;;;;12.91;80.23;98872.53;4831713;29;20044;-88
2022/11/19 06:21:45;;;;;;;7.93;5.95;;;;;;;12.96;80.50;98879.75;4836826;29;20037;-89
2022/11/19 06:24:11;;;;;;;11.20;6.45;;;;;;;12.83;80.29;98865.09;4873928;29;20043;-89
2022/11/19 06:26:37;;;;;;;9.25;7.13;;;;;;;13.04;79.40;98890.66;4846950;29;20025;-88
2022/11/19 06:29:02;;;;;;;7.78;5.97;;;;;;;13.20;78.53;98904.72;4831376;29;20083;-88
2022/11/19 06:31:28;;;;;;;7.25;5.57;;;;;;;13.12;78.02;98889.19;4842054;29;20061;-88
2022/11/19 06:33:53;;;;;;;8.38;6.20;;;;;;;13.29;78.53;98926.50;4831458;29;20561;-89
2022/11/19 06:36:19;;;;;;;9.75;6.95;;;;;;;13.07;78.94;98916.28;4859856;29;20037;-89
2022/11/19 06:38:45;;;;;;;11.20;6.65;;;;;;;13.23;78.64;98923.03;4832541;29;20041;-89
2022/11/19 06:41:12;;;;;;;10.95;6.68;;;;;;;13.35;77.99;98922.59;4825225;29;20040;-88
2022/11/19 06:43:38;;;;;;;11.35;7.45;;;;;;;13.42;77.37;98939.22;4847481;29;20567;-88
2022/11/19 06:46:03;;;;;;;16.23;8.77;;;;;;;13.41;77.45;98926.03;4846154;29;20024;-89
2022/11/19 06:48:29;;;;;;;12.30;8.73;;;;;;;13.64;76.72;98948.59;4820324;29;20030;-89
2022/11/19 06:50:54;;;;;;;12.00;8.07;;;;;;;13.67;77.07;98937.97;4843763;29;20025;-89
2022/11/19 06:53:20;;;;;;;14.80;9.10;;;;;;;13.71;77.23;98949.00;4854201;29;20029;-89
2022/11/19 06:55:45;;;;;;;12.25;8.50;;;;;;;13.77;76.57;98936.97;4844207;29;20033;-88
2022/11/19 06:58:12;;;;;;;12.07;6.07;;;;;;;13.83;74.33;98938.47;4856144;29;20037;-89
2022/11/19 07:00:37;;;;;;;8.18;5.70;;;;;;;13.90;73.00;98952.44;4823241;29;20037;-88
2022/11/19 07:03:03;;;;;;;8.25;5.50;;;;;;;13.88;73.14;98953.81;4834243;29;20053;-89
2022/11/19 07:05:28;;;;;;;8.43;4.78;;;;;;;13.75;72.72;98960.81;4835231;29;20037;-90
2022/11/19 07:07:54;;;;;;;7.20;4.75;;;;;;;13.87;72.02;98949.50;4829975;29;20033;-90
2022/11/19 07:10:19;;;;;;;7.47;4.20;;;;;;;13.97;70.36;98956.63;4845514;29;20052;-89
2022/11/19 07:12:45;;;;;;;5.30;3.72;;;;;;;13.94;69.28;98953.44;4818961;29;20120;-89
2022/11/19 07:15:10;;;;;;;8.68;4.90;;;;;;;14.08;69.38;98969.66;4838698;29;20044;-89
2022/11/19 07:17:36;;;;;;;5.05;3.60;;;;;;;14.07;69.33;98964.53;4836365;29;20093;-89
2022/11/19 07:20:05;;;;;;;9.93;5.57;;;;;;;14.14;68.95;98963.03;4836612;29;20063;-88
2022/11/19 07:22:31;;;;;;;6.90;4.63;;;;;;;14.18;69.39;98975.97;4830319;29;20029;-88
2022/11/19 07:24:57;;;;;;;5.53;3.42;;;;;;;14.02;67.81;98964.66;4856957;29;20390;-90
2022/11/19 07:27:22;;;;;;;6.60;4.13;;;;;;;14.09;67.58;98965.03;4845349;29;20029;-89
2022/11/19 07:29:47;;;;;;;4.65;3.03;;;;;;;14.09;65.62;98973.97;4837075;29;20036;-88
2022/11/19 07:32:13;;;;;;;7.28;3.38;;;;;;;14.07;67.51;98980.78;4854281;29;20037;-89
2022/11/19 07:34:38;;;;;;;8.65;6.50;;;;;;;14.08;70.13;98975.06;4837221;29;20033;-88
2022/11/19 07:37:04;;;;;;;5.78;4.25;;;;;;;14.10;67.44;98983.69;4827014;29;20065;-88
2022/11/19 07:39:29;;;;;;;5.95;3.60;;;;;;;14.17;66.85;99002.22;4849125;29;20033;-88
2022/11/19 07:44:39;;;;;;;8.90;5.03;;;;;;;14.14;67.67;98995.53;4868161;29;20040;-89
2022/11/19 07:47:06;;;;;;;6.93;5.32;;;;;;;14.28;67.88;99000.16;4850400;29;20412;-90
2022/11/19 07:49:32;;;;;;;7.10;3.47;;;;;;;14.38;67.42;99013.47;4850125;29;20025;-90
2022/11/19 07:51:57;;;;;;;5.55;3.50;;;;;;;14.31;65.52;98991.41;4834823;29;20025;-90
2022/11/19 07:54:23;;;;;;;5.38;2.60;;;;;;;14.38;64.43;99002.66;4850171;29;20039;-90
2022/11/19 07:56:48;;;;;;;4.13;3.13;;;;;;;14.41;64.72;98990.41;4865360;29;20048;-91
2022/11/19 07:59:14;;;;;;;7.47;2.70;;;;;;;14.60;62.22;99011.97;4866020;29;20036;-89
2022/11/19 08:01:39;;;;;;;5.72;2.67;;;;;;;14.62;62.90;99013.25;4865516;29;20052;-90
2022/11/19 08:04:05;;;;;;;4.10;2.90;;;;;;;14.58;62.68;99004.13;4848742;29;20029;-91
2022/11/19 08:06:33;;;;;;;6.50;3.50;;;;;;;14.66;61.83;99024.31;4854215;29;20090;-90
2022/11/19 08:08:58;;;;;;;4.22;2.33;;;;;;;14.52;58.74;98999.91;4842540;29;20029;-91
2022/11/19 08:11:24;;;;;;;5.00;2.40;;;;;;;14.63;59.46;99012.16;4874812;29;20502;-89
2022/11/19 08:13:50;;;;;;;3.60;2.40;;;;;;;14.60;60.53;99004.63;4859851;29;20037;-90
2022/11/19 08:19:01;;;;;;;4.88;2.40;;;;;;;14.65;61.22;99014.56;4848455;29;20484;-96
2022/11/19 08:21:27;;;;;;;2.80;2.30;;;;;;;14.68;60.02;99022.88;4834602;29;20033;-91
2022/11/19 08:23:52;;;;;;;4.18;2.30;;;;;;;14.75;61.00;99027.88;4844760;29;20025;-93
2022/11/19 08:26:18;;;;;;;3.53;2.40;;;;;;;14.61;59.95;99016.28;4848905;29;20039;-91
2022/11/19 08:28:43;;;;;;;3.35;2.40;;;;;;;14.65;60.06;99014.56;4849476;29;20094;-91
2022/11/19 08:31:09;;;;;;;4.93;2.80;;;;;;;14.74;59.58;99027.09;4849964;29;20032;-93
2022/11/19 08:33:34;;;;;;;2.70;2.10;;;;;;;14.75;58.54;99026.00;4857172;29;20523;-91
2022/11/19 08:36:00;;;;;;;3.25;2.38;;;;;;;14.66;60.54;99024.31;4846952;29;20062;-91
2022/11/19 08:38:25;;;;;;;6.15;2.78;;;;;;;14.70;60.95;99025.31;4859872;29;20132;-92
2022/11/19 08:40:52;;;;;;;3.30;1.90;;;;;;;14.71;59.10;99030.44;4860359;29;20415;-91
2022/11/19 08:43:17;;;;;;;3.92;2.38;;;;;;;14.81;59.79;99044.84;4864574;29;20039;-91
2022/11/19 08:45:51;;;;;;;2.88;2.10;;;;;;;14.77;58.87;99043.84;4833953;29;20443;-91
2022/11/19 08:48:16;;;;;;;3.38;1.98;;;;;;;14.77;59.74;99043.84;4849656;29;20415;-91
2022/11/19 08:50:42;;;;;;;3.20;2.30;;;;;;;14.78;61.13;99048.19;4849316;29;20044;-92
2022/11/19 08:53:08;;;;;;;5.90;2.47;;;;;;;14.91;59.42;99050.06;4843237;29;20028;-90
2022/11/19 08:55:36;;;;;;;3.42;2.45;;;;;;;14.77;59.78;99028.38;4850564;29;20028;-91
2022/11/19 08:58:02;;;;;;;4.50;3.00;;;;;;;14.83;60.75;99031.78;4839963;29;20036;-89
2022/11/19 09:00:28;;;;;;;3.47;2.40;;;;;;;14.89;59.26;99038.72;4844129;29;20236;-90
2022/11/19 09:02:54;;;;;;;3.92;2.38;;;;;;;14.92;59.39;99027.25;4867481;29;20139;-92
2022/11/19 09:05:19;;;;;;;4.82;3.05;;;;;;;15.08;60.51;99043.97;4867088;29;20037;-89
2022/11/19 09:07:45;;;;;;;5.03;3.50;;;;;;;15.08;59.54;99041.25;4865774;29;20035;-91
2022/11/19 09:10:10;;;;;;;6.72;3.35;;;;;;;15.06;58.86;99043.47;4849422;29;20393;-88
2022/11/19 09:12:36;;;;;;;3.45;2.17;;;;;;;15.05;56.97;99029.13;4852827;29;20033;-90
2022/11/19 09:15:01;;;;;;;2.55;1.77;;;;;;;15.19;56.86;99044.53;4858095;29;20515;-88
2022/11/19 09:17:27;;;;;;;2.45;1.98;;;;;;;15.08;56.57;99027.69;4864326;29;20036;-88
2022/11/19 09:19:52;;;;;;;2.95;2.20;;;;;;;15.03;56.99;98998.81;4863744;29;20056;-88
2022/11/19 09:22:24;;;;;;;2.30;1.90;;;;;;;15.13;56.64;99014.84;4853107;29;20071;-94
2022/11/19 09:24:50;;;;;;;2.45;1.90;;;;;;;15.10;56.73;99020.84;4862232;29;20044;-91
2022/11/19 09:27:15;;;;;;;6.40;2.17;;;;;;;15.20;56.07;99022.53;4887125;29;20041;-88
2022/11/19 09:29:41;;;;;;;2.90;2.00;;;;;;;15.12;56.66;99024.06;4858955;29;20048;-91
2022/11/19 09:32:06;;;;;;;3.05;1.90;;;;;;;15.20;56.53;99019.81;4882855;29;20029;-92
2022/11/19 09:34:33;;;;;;;5.40;1.88;;;;;;;15.27;56.54;99032.94;4882402;29;20083;-90
2022/11/19 09:36:59;;;;;;;2.95;2.10;;;;;;;15.36;56.05;99026.50;4882337;29;20067;-88
2022/11/19 09:39:25;;;;;;;3.00;2.17;;;;;;;15.44;56.09;99026.84;4866712;29;20032;-91
2022/11/19 09:42:13;;;;;;;2.72;1.92;;;;;;;15.66;56.08;99050.47;4866608;29;20554;-90
2022/11/19 09:44:39;;;;;;;3.78;1.85;;;;;;;15.59;57.14;99042.75;4891358;29;20032;-90
2022/11/19 09:47:28;;;;;;;2.70;2.00;;;;;;;15.71;55.44;99050.34;4885747;29;20052;-89
2022/11/19 09:50:12;;;;;;;2.55;1.77;;;;;;;15.75;54.80;99046.72;4889671;29;20081;-90
2022/11/19 09:52:51;;;;;;;3.20;2.13;;;;;;;15.75;54.85;99037.78;4887895;29;20507;-90
2022/11/19 09:55:23;;;;;;;2.70;2.00;;;;;;;15.68;54.69;99023.81;4861441;29;20034;-89
2022/11/19 09:57:53;;;;;;;2.22;1.65;;;;;;;15.81;54.36;99028.38;4865543;29;20119;-90
2022/11/19 10:00:22;;;;;;;3.70;2.65;;;;;;;15.81;55.07;99030.28;4857949;29;20052;-91
2022/11/19 10:02:47;;;;;;;3.15;2.75;;;;;;;15.94;54.28;99018.56;4858371;29;20567;-90
2022/11/19 10:05:23;;;;;;;2.50;1.70;;;;;;;15.99;53.30;99023.84;4861233;29;20032;-90
2022/11/19 10:08:21;;;;;;;2.03;1.55;;;;;;;16.11;52.89;99040.34;4847302;29;20048;-95
2022/11/19 10:11:29;;;;;;;2.55;1.73;;;;;;;16.23;52.92;99045.19;4865995;29;20500;-94
2022/11/19 10:14:31;;;;;;;2.03;1.52;;;;;;;16.36;52.56;99024.44;4863452;29;20522;-90
2022/11/19 10:16:59;;;;;;;2.67;1.90;;;;;;;16.31;52.56;99011.81;4889270;29;20077;-90
2022/11/19 10:19:32;;;;;;;3.55;2.20;;;;;;;16.41;52.16;99018.06;4858904;29;20043;-89
2022/11/19 10:21:59;;;;;;;3.75;2.20;;;;;;;16.48;52.92;99032.00;4889965;29;20407;-90
2022/11/19 10:24:36;;;;;;;4.95;2.85;;;;;;;16.43;54.31;99027.50;4894300;29;20037;-90
2022/11/19 10:27:08;;;;;;;7.15;3.40;;;;;;;16.41;54.70;99021.56;4865912;29;20028;-90
2022/11/19 10:29:36;;;;;;;7.78;2.90;;;;;;;16.54;54.35;99036.19;4882860;29;20028;-90
2022/11/19 10:32:41;;;;;;;5.20;2.58;;;;;;;16.59;53.18;99021.63;4866188;29;20036;-91
2022/11/19 10:35:10;;;;;;;3.90;2.10;;;;;;;16.71;51.68;99019.91;4883535;29;20089;-90
2022/11/19 10:37:39;;;;;;;2.85;2.10;;;;;;;16.73;52.00;99004.06;4850783;29;20052;-90
2022/11/19 10:40:10;;;;;;;2.95;2.00;;;;;;;16.81;52.13;99007.13;4865483;29;20040;-90
2022/11/19 10:42:47;;;;;;;5.50;2.38;;;;;;;16.93;51.75;98994.53;4881237;29;20040;-90
2022/11/19 10:45:21;;;;;;;3.42;1.98;;;;;;;17.01;50.89;99001.06;4851308;29;20036;-90
2022/11/19 10:48:02;;;;;;;2.42;1.75;;;;;;;17.11;49.90;98999.94;4866652;29;20061;-90
2022/11/19 10:50:28;;;;;;;3.95;1.70;;;;;;;17.11;49.62;98994.50;4867287;29;20027;-89
2022/11/19 10:53:28;;;;;;;2.88;1.70;;;;;;;17.05;49.54;98985.69;4865509;29;20060;-92
2022/11/19 10:56:32;;;;;;;2.28;1.70;;;;;;;16.99;50.20;98995.13;4877669;29;20041;-89
2022/11/19 10:59:02;;;;;;;2.33;2.00;;;;;;;16.72;51.25;98988.06;4863128;29;20037;-90
2022/11/19 11:01:30;;;;;;;1.90;1.60;;;;;;;16.73;51.26;98976.09;4865503;29;20144;-89
2022/11/19 11:04:18;;;;;;;3.08;1.88;;;;;;;16.70;51.36;98977.50;4850198;29;20088;-92
2022/11/19 11:06:53;;;;;;;2.78;2.05;;;;;;;16.73;52.11;98989.69;4868140;29;20435;-92
2022/11/19 11:09:33;;;;;;;3.33;2.00;;;;;;;16.67;51.73;98990.94;4896460;29;20039;-89
2022/11/19 11:15:12;;;;;;;1.92;1.60;;;;;;;16.53;51.71;98999.22;4897686;29;20089;-89
2022/11/19 11:17:37;;;;;;;6.22;1.95;;;;;;;16.40;51.97;98978.44;4879932;29;20029;-89
2022/11/19 11:20:06;;;;;;;3.38;2.17;;;;;;;16.43;51.33;98997.59;4864922;29;20031;-89
2022/11/19 11:22:31;;;;;;;3.22;1.90;;;;;;;16.41;51.51;98983.53;4895897;29;20227;-92
2022/11/19 11:24:58;;;;;;;3.97;2.00;;;;;;;16.29;51.26;98962.44;4849689;29;20403;-91
2022/11/19 11:27:32;;;;;;;3.63;2.13;;;;;;;16.39;51.90;98957.81;4864308;29;20033;-92
2022/11/19 11:30:12;;;;;;;3.95;2.50;;;;;;;16.54;51.82;98970.94;4860730;29;20025;-91
2022/11/19 11:32:38;;;;;;;5.20;2.58;;;;;;;16.50;52.12;98959.13;4891653;29;20028;-90
2022/11/19 11:35:04;;;;;;;4.07;2.33;;;;;;;16.43;51.34;98958.75;4855865;29;20024;-90
2022/11/19 11:37:30;;;;;;;3.05;2.25;;;;;;;16.46;51.80;98958.16;4865723;29;20063;-92
2022/11/19 11:53:47;;;;;;;4.00;2.78;;;;;;;17.05;50.32;98985.69;4918263;29;20546;-94
2022/11/19 11:56:12;;;;;;;5.00;2.40;;;;;;;16.88;49.88;98969.41;4885397;29;20091;-94
2022/11/19 11:58:38;;;;;;;5.55;2.40;;;;;;;17.02;48.91;98983.63;4869931;29;20447;-94
2022/11/19 12:01:19;;;;;;;3.55;2.55;;;;;;;17.00;49.43;98982.34;4884507;29;20414;-95
2022/11/19 12:03:55;;;;;;;3.70;2.28;;;;;;;16.75;49.66;98950.16;4884055;29;20055;-90
2022/11/19 12:06:23;;;;;;;2.95;2.20;;;;;;;16.70;49.46;98960.38;4867875;29;20036;-89
2022/11/19 12:09:00;;;;;;;2.28;1.80;;;;;;;16.94;49.15;98982.50;4883714;29;20024;-90
2022/11/19 12:11:53;;;;;;;3.75;2.00;;;;;;;17.08;48.60;98990.50;4889333;29;20024;-90
2022/11/19 12:14:47;;;;;;;2.35;1.90;;;;;;;17.19;48.80;98985.53;4903953;29;20385;-91
2022/11/19 12:17:22;;;;;;;2.53;1.88;;;;;;;17.08;48.55;98959.75;4896469;29;20036;-88
2022/11/19 12:19:56;;;;;;;2.60;1.80;;;;;;;17.19;48.54;98973.84;4882635;29;20043;-90